createdAt,value
2023-03-14T00:01:35.775Z,5.38
2023-03-14T00:04:05.370Z,4.53
2023-03-14T00:06:32.307Z,4.85
2023-03-14T00:08:59.050Z,4.53
2023-03-14T00:11:25.431Z,4.57
2023-03-14T00:13:52.664Z,4.85
2023-03-14T00:16:19.939Z,4.55
2023-03-14T00:18:46.315Z,6.10
2023-03-14T00:21:13.114Z,3.97
2023-03-14T00:23:40.782Z,4.00
2023-03-14T00:26:12.861Z,4.55
2023-03-14T00:28:40.204Z,4.15
2023-03-14T00:31:08.046Z,4.00
2023-03-14T00:33:34.856Z,3.50
2023-03-14T00:36:03.835Z,4.50
2023-03-14T00:38:31.534Z,3.83
2023-03-14T00:40:57.909Z,3.22
2023-03-14T00:43:24.778Z,6.80
2023-03-14T00:45:52.371Z,3.78
2023-03-14T00:48:20.358Z,6.40
2023-03-14T00:50:47.162Z,5.57
2023-03-14T00:53:13.557Z,8.55
2023-03-14T00:55:41.225Z,6.53
2023-03-14T00:58:07.588Z,4.80
2023-03-14T01:00:34.076Z,6.53
2023-03-14T01:03:00.600Z,5.43
2023-03-14T01:05:27.085Z,5.60
2023-03-14T01:07:53.450Z,4.10
2023-03-14T01:10:20.064Z,3.88
2023-03-14T01:12:46.448Z,5.25
2023-03-14T01:15:12.828Z,4.35
2023-03-14T01:17:40.345Z,5.07
2023-03-14T01:20:10.157Z,4.53
2023-03-14T01:22:37.336Z,4.32
2023-03-14T01:25:04.377Z,5.93
2023-03-14T01:27:30.736Z,4.70
2023-03-14T01:29:57.111Z,5.68
2023-03-14T01:32:24.833Z,4.53
2023-03-14T01:34:51.249Z,5.68
2023-03-14T01:37:17.850Z,5.72
2023-03-14T01:39:44.295Z,6.78
2023-03-14T01:42:10.658Z,5.10
2023-03-14T01:44:58.002Z,4.38
2023-03-14T01:47:24.527Z,7.80
2023-03-14T01:49:55.269Z,7.00
2023-03-14T01:52:26.386Z,6.25
2023-03-14T01:54:56.871Z,4.60
2023-03-14T01:57:26.732Z,5.63
2023-03-14T01:59:56.378Z,7.32
2023-03-14T02:02:23.426Z,6.95
2023-03-14T02:04:50.434Z,6.10
2023-03-14T02:07:28.048Z,6.97
2023-03-14T02:09:55.602Z,8.20
2023-03-14T02:12:22.741Z,4.68
2023-03-14T02:14:49.362Z,6.10
2023-03-14T02:17:18.630Z,3.60
2023-03-14T02:19:57.177Z,8.80
2023-03-14T02:22:23.701Z,5.43
2023-03-14T02:25:08.668Z,4.22
2023-03-14T02:27:35.856Z,6.95
2023-03-14T02:30:07.563Z,5.53
2023-03-14T02:32:35.758Z,5.90
2023-03-14T02:35:06.732Z,8.05
2023-03-14T02:37:48.974Z,4.97
2023-03-14T02:40:15.418Z,6.25
2023-03-14T02:42:41.827Z,5.95
2023-03-14T02:45:11.163Z,6.10
2023-03-14T02:47:42.511Z,5.82
2023-03-14T02:50:18.004Z,4.43
2023-03-14T02:52:44.382Z,3.55
2023-03-14T02:55:11.176Z,4.43
2023-03-14T02:57:37.768Z,4.07
2023-03-14T03:00:05.995Z,4.93
2023-03-14T03:02:32.573Z,3.65
2023-03-14T03:04:59.186Z,2.88
2023-03-14T03:07:25.798Z,3.40
2023-03-14T03:09:52.175Z,2.70
2023-03-14T03:12:18.533Z,3.80
2023-03-14T03:14:44.944Z,2.15
2023-03-14T03:17:11.349Z,1.25
2023-03-14T03:19:37.756Z,2.95
2023-03-14T03:22:04.184Z,1.85
2023-03-14T03:24:30.632Z,2.88
2023-03-14T03:26:57.087Z,3.10
2023-03-14T03:29:23.674Z,2.30
2023-03-14T03:31:50.034Z,2.58
2023-03-14T03:34:16.532Z,3.40
2023-03-14T03:36:42.901Z,3.58
2023-03-14T03:39:09.343Z,4.50
2023-03-14T03:41:35.693Z,3.42
2023-03-14T03:44:02.081Z,3.15
2023-03-14T03:46:28.518Z,3.83
2023-03-14T03:48:59.238Z,3.03
2023-03-14T03:51:25.707Z,5.85
2023-03-14T03:53:52.142Z,3.85
2023-03-14T03:56:18.834Z,4.82
2023-03-14T03:58:45.478Z,5.40
2023-03-14T04:01:12.040Z,3.60
2023-03-14T04:03:41.525Z,7.13
2023-03-14T04:06:12.982Z,3.85
2023-03-14T04:08:41.493Z,5.15
2023-03-14T04:11:08.108Z,3.83
2023-03-14T04:13:34.493Z,3.33
2023-03-14T04:16:00.896Z,4.82
2023-03-14T04:18:27.816Z,3.35
2023-03-14T04:20:55.299Z,4.50
2023-03-14T04:23:24.457Z,3.13
2023-03-14T04:25:54.330Z,5.07
2023-03-14T04:28:20.773Z,6.00
2023-03-14T04:30:47.137Z,4.70
2023-03-14T04:33:17.951Z,6.32
2023-03-14T04:35:45.303Z,5.60
2023-03-14T04:38:12.012Z,4.90
2023-03-14T04:40:39.404Z,6.88
2023-03-14T04:43:05.866Z,3.70
2023-03-14T04:45:32.330Z,4.93
2023-03-14T04:47:58.704Z,4.32
2023-03-14T04:50:25.065Z,8.27
2023-03-14T04:52:51.489Z,5.22
2023-03-14T04:55:17.965Z,6.45
2023-03-14T04:57:44.367Z,12.40
2023-03-14T05:00:11.233Z,5.95
2023-03-14T05:02:37.716Z,4.80
2023-03-14T05:05:04.635Z,7.95
2023-03-14T05:07:31.015Z,5.32
2023-03-14T05:09:57.412Z,6.20
2023-03-14T05:12:23.786Z,10.15
2023-03-14T05:14:51.624Z,7.15
2023-03-14T05:17:18.859Z,7.38
2023-03-14T05:19:45.564Z,8.55
2023-03-14T05:22:12.691Z,8.00
2023-03-14T05:24:39.125Z,8.70
2023-03-14T05:27:06.019Z,10.68
2023-03-14T05:29:32.479Z,9.73
2023-03-14T05:31:58.875Z,9.55
2023-03-14T05:34:25.301Z,8.93
2023-03-14T05:36:51.778Z,6.80
2023-03-14T05:39:19.108Z,7.80
2023-03-14T05:41:45.529Z,7.47
2023-03-14T05:44:11.878Z,8.00
2023-03-14T05:46:38.321Z,8.38
2023-03-14T05:49:04.750Z,8.25
2023-03-14T05:51:31.136Z,10.75
2023-03-14T05:53:57.521Z,4.88
2023-03-14T05:56:23.917Z,5.43
2023-03-14T05:58:51.423Z,9.70
2023-03-14T06:01:17.821Z,9.43
2023-03-14T06:03:44.236Z,7.32
2023-03-14T06:06:10.687Z,7.82
2023-03-14T06:08:37.112Z,7.50
2023-03-14T06:11:04.344Z,4.20
2023-03-14T06:13:30.742Z,3.60
2023-03-14T06:15:57.162Z,8.18
2023-03-14T06:18:23.576Z,8.88
2023-03-14T06:20:49.960Z,6.95
2023-03-14T06:23:16.362Z,6.45
2023-03-14T06:25:42.801Z,6.30
2023-03-14T06:28:11.514Z,4.13
2023-03-14T06:30:37.967Z,4.60
2023-03-14T06:33:04.484Z,5.18
2023-03-14T06:35:30.885Z,4.75
2023-03-14T06:37:57.314Z,2.80
2023-03-14T06:40:24.013Z,4.32
2023-03-14T06:42:50.472Z,4.82
2023-03-14T06:45:16.954Z,2.72
2023-03-14T06:47:43.412Z,2.92
2023-03-14T06:50:10.719Z,4.45
2023-03-14T06:52:37.525Z,1.63
2023-03-14T06:55:04.196Z,2.28
2023-03-14T06:57:30.548Z,2.78
2023-03-14T06:59:56.953Z,1.77
2023-03-14T07:02:36.074Z,3.55
2023-03-14T07:05:08.719Z,1.80
2023-03-14T07:07:35.161Z,1.92
2023-03-14T07:10:01.515Z,1.88
2023-03-14T07:12:27.935Z,1.42
2023-03-14T07:14:54.344Z,1.15
2023-03-14T07:17:20.751Z,2.13
2023-03-14T07:19:47.550Z,2.08
2023-03-14T07:22:13.932Z,3.55
2023-03-14T07:24:40.326Z,2.25
2023-03-14T07:27:07.295Z,2.70
2023-03-14T07:29:35.039Z,1.30
2023-03-14T07:32:01.415Z,3.45
2023-03-14T07:34:27.802Z,2.75
2023-03-14T07:36:54.194Z,1.23
2023-03-14T07:39:20.567Z,1.50
2023-03-14T07:41:47.006Z,1.48
2023-03-14T07:44:13.886Z,2.35
2023-03-14T07:46:40.386Z,1.17
2023-03-14T07:49:07.088Z,3.30
2023-03-14T07:51:33.634Z,2.80
2023-03-14T07:54:00.018Z,3.08
2023-03-14T07:56:26.397Z,1.75
2023-03-14T07:58:52.770Z,1.25
2023-03-14T08:01:19.170Z,1.63
2023-03-14T08:03:45.595Z,2.83
2023-03-14T08:06:12.035Z,1.58
2023-03-14T08:08:39.492Z,2.20
2023-03-14T08:11:07.057Z,3.10
2023-03-14T08:13:33.522Z,3.30
2023-03-14T08:16:00.050Z,3.70
2023-03-14T08:18:26.891Z,2.22
2023-03-14T08:20:53.273Z,4.75
2023-03-14T08:23:19.756Z,2.05
2023-03-14T08:25:46.319Z,3.13
2023-03-14T08:28:12.809Z,4.00
2023-03-14T08:30:39.238Z,3.95
2023-03-14T08:33:05.765Z,5.88
2023-03-14T08:35:32.191Z,3.10
2023-03-14T08:37:58.597Z,4.40
2023-03-14T08:40:25.129Z,3.35
2023-03-14T08:42:51.657Z,5.57
2023-03-14T08:45:18.315Z,4.07
2023-03-14T08:47:45.516Z,4.22
2023-03-14T08:50:16.063Z,3.42
2023-03-14T08:52:43.075Z,2.88
2023-03-14T08:55:10.594Z,3.55
2023-03-14T08:57:37.402Z,4.22
2023-03-14T09:00:15.217Z,3.35
2023-03-14T09:02:43.973Z,2.72
2023-03-14T09:05:11.226Z,2.95
2023-03-14T09:07:38.557Z,3.40
2023-03-14T09:10:05.522Z,3.33
2023-03-14T09:12:31.887Z,6.18
2023-03-14T09:14:58.303Z,4.15
2023-03-14T09:17:24.671Z,4.25
2023-03-14T09:19:51.065Z,4.60
2023-03-14T09:22:17.504Z,6.13
2023-03-14T09:24:44.017Z,5.22
2023-03-14T09:27:10.424Z,3.33
2023-03-14T09:29:36.866Z,4.10
2023-03-14T09:32:04.344Z,4.13
2023-03-14T09:34:30.769Z,3.63
2023-03-14T09:36:57.968Z,3.28
2023-03-14T09:39:24.375Z,4.20
2023-03-14T09:41:52.893Z,4.10
2023-03-14T09:44:27.007Z,5.22
2023-03-14T09:46:55.713Z,3.47
2023-03-14T09:49:30.417Z,4.72
2023-03-14T09:51:59.245Z,3.17
2023-03-14T09:54:34.873Z,5.88
2023-03-14T09:57:01.692Z,3.85
2023-03-14T09:59:29.716Z,4.50
2023-03-14T10:02:00.878Z,5.45
2023-03-14T10:04:28.528Z,4.65
2023-03-14T10:06:54.988Z,4.63
2023-03-14T10:09:26.695Z,4.95
2023-03-14T10:11:57.896Z,5.00
2023-03-14T10:14:31.894Z,5.60
2023-03-14T10:17:06.054Z,5.60
2023-03-14T10:19:32.459Z,6.07
2023-03-14T10:22:01.858Z,7.93
2023-03-14T10:24:35.893Z,7.75
2023-03-14T10:27:09.956Z,6.30
2023-03-14T10:29:53.075Z,7.20
2023-03-14T10:32:23.500Z,4.00
2023-03-14T10:35:12.208Z,2.22
2023-03-14T10:37:58.664Z,1.75
2023-03-14T10:40:34.790Z,0.77
2023-03-14T10:43:02.423Z,1.67
2023-03-14T10:45:52.282Z,2.25
2023-03-14T10:48:24.401Z,1.42
2023-03-14T10:50:56.898Z,1.50
2023-03-14T10:53:26.527Z,0.82
2023-03-14T10:55:54.102Z,2.53
2023-03-14T10:58:27.392Z,1.90
2023-03-14T11:01:23.052Z,0.57
2023-03-14T11:03:54.475Z,2.05
2023-03-14T11:06:34.112Z,0.82
2023-03-14T11:09:19.763Z,0.82
2023-03-14T11:11:48.419Z,1.85
2023-03-14T11:14:33.324Z,0.88
2023-03-14T11:17:15.241Z,1.00
2023-03-14T11:20:00.149Z,1.17
2023-03-14T11:22:34.230Z,0.95
2023-03-14T11:25:28.419Z,1.20
2023-03-14T11:28:05.924Z,0.95
2023-03-14T11:30:38.304Z,0.80
2023-03-14T11:33:04.707Z,2.53
2023-03-14T11:35:38.967Z,1.13
2023-03-14T11:38:34.427Z,1.73
2023-03-14T11:41:01.064Z,4.65
2023-03-14T11:43:35.964Z,4.88
2023-03-14T11:46:06.505Z,2.08
2023-03-14T11:48:41.951Z,1.63
2023-03-14T11:51:13.803Z,1.30
2023-03-14T11:53:49.650Z,2.25
2023-03-14T11:56:23.993Z,1.85
2023-03-14T11:58:58.823Z,1.90
2023-03-14T12:01:32.369Z,2.17
2023-03-14T12:04:03.960Z,3.63
2023-03-14T12:06:39.043Z,2.47
2023-03-14T12:09:07.038Z,5.78
2023-03-14T12:11:50.119Z,4.05
2023-03-14T12:14:34.497Z,8.45
2023-03-14T12:17:25.238Z,5.15
2023-03-14T12:20:22.002Z,7.28
2023-03-14T12:22:53.751Z,8.25
2023-03-14T12:25:27.140Z,7.55
2023-03-14T12:27:56.659Z,4.55
2023-03-14T12:30:33.686Z,8.50
2023-03-14T12:33:18.471Z,10.57
2023-03-14T12:35:46.840Z,8.38
2023-03-14T12:38:24.257Z,11.00
2023-03-14T12:41:00.273Z,5.47
2023-03-14T12:43:32.020Z,8.20
2023-03-14T12:46:23.007Z,11.65
2023-03-14T12:49:01.337Z,7.75
2023-03-14T12:51:39.144Z,10.88
2023-03-14T12:54:43.283Z,7.10
2023-03-14T12:57:34.452Z,7.28
2023-03-14T13:00:02.082Z,9.18
2023-03-14T13:02:37.685Z,9.77
2023-03-14T13:05:12.997Z,8.65
2023-03-14T13:07:48.500Z,10.90
2023-03-14T13:10:25.777Z,8.35
2023-03-14T13:12:56.415Z,8.55
2023-03-14T13:15:29.012Z,12.35
2023-03-14T13:18:00.796Z,9.88
2023-03-14T13:20:36.804Z,11.90
2023-03-14T13:23:03.518Z,11.68
2023-03-14T13:25:31.204Z,16.75
2023-03-14T13:27:58.134Z,29.00
2023-03-14T13:30:27.704Z,52.15
2023-03-14T13:32:55.528Z,44.35
2023-03-14T13:35:28.506Z,40.83
2023-03-14T13:38:10.984Z,47.88
2023-03-14T13:40:38.716Z,46.28
2023-03-14T13:43:15.844Z,46.28
2023-03-14T13:45:45.292Z,27.90
2023-03-14T13:48:13.370Z,25.83
2023-03-14T13:50:39.753Z,32.20
2023-03-14T13:53:06.155Z,22.65
2023-03-14T13:55:32.533Z,19.05
2023-03-14T13:57:58.902Z,18.75
2023-03-14T14:00:28.177Z,19.02
2023-03-14T14:02:55.686Z,18.90
2023-03-14T14:05:22.880Z,19.73
2023-03-14T14:07:50.176Z,16.92
2023-03-14T14:10:16.726Z,15.85
2023-03-14T14:12:53.863Z,11.40
2023-03-14T14:15:23.308Z,14.88
2023-03-14T14:17:56.079Z,12.43
2023-03-14T14:20:35.964Z,14.30
2023-03-14T14:23:04.538Z,13.75
2023-03-14T14:25:31.267Z,15.60
2023-03-14T14:27:57.681Z,14.68
2023-03-14T14:30:34.435Z,14.98
2023-03-14T14:33:21.375Z,14.02
2023-03-14T14:35:58.388Z,14.23
2023-03-14T14:38:25.702Z,12.60
2023-03-14T14:40:54.862Z,7.75
2023-03-14T14:43:25.628Z,14.00
2023-03-14T14:45:54.386Z,7.80
2023-03-14T14:48:23.760Z,12.75
2023-03-14T14:50:56.792Z,10.68
2023-03-14T14:53:30.366Z,9.85
2023-03-14T14:56:00.245Z,8.38
2023-03-14T14:58:34.643Z,10.70
2023-03-14T15:01:08.152Z,14.75
2023-03-14T15:03:34.969Z,13.38
2023-03-14T15:06:02.557Z,10.95
2023-03-14T15:08:29.480Z,9.65
2023-03-14T15:10:57.265Z,9.65
2023-03-14T15:13:24.075Z,12.30
2023-03-14T15:15:57.008Z,10.00
2023-03-14T15:18:25.633Z,12.02
2023-03-14T15:20:52.436Z,10.35
2023-03-14T15:23:23.067Z,9.32
2023-03-14T15:25:57.260Z,9.85
2023-03-14T15:28:28.510Z,9.90
2023-03-14T15:30:57.245Z,11.13
2023-03-14T15:33:24.999Z,10.65
2023-03-14T15:35:51.503Z,7.85
2023-03-14T15:38:23.974Z,8.00
2023-03-14T15:40:51.674Z,10.43
2023-03-14T15:43:19.287Z,9.38
2023-03-14T15:45:45.905Z,7.32
2023-03-14T15:48:17.684Z,7.70
2023-03-14T15:50:44.516Z,8.38
2023-03-14T15:53:11.514Z,9.63
2023-03-14T15:55:38.112Z,7.70
2023-03-14T15:58:05.061Z,10.07
2023-03-14T16:00:31.739Z,5.80
2023-03-14T16:02:58.131Z,10.55
2023-03-14T16:05:24.893Z,12.10
2023-03-14T16:07:51.380Z,10.60
2023-03-14T16:10:17.798Z,11.02
2023-03-14T16:12:44.312Z,10.23
2023-03-14T16:15:11.124Z,7.05
2023-03-14T16:17:38.707Z,11.75
2023-03-14T16:20:06.058Z,11.48
2023-03-14T16:22:35.721Z,15.57
2023-03-14T16:25:06.603Z,12.65
2023-03-14T16:27:33.183Z,13.25
2023-03-14T16:30:02.501Z,15.10
2023-03-14T16:32:29.000Z,14.05
2023-03-14T16:34:55.516Z,14.82
2023-03-14T16:37:24.296Z,12.20
2023-03-14T16:40:13.176Z,9.57
2023-03-14T16:42:43.585Z,13.30
2023-03-14T16:45:16.927Z,10.18
2023-03-14T16:47:43.378Z,10.70
2023-03-14T16:50:10.068Z,12.45
2023-03-14T16:52:36.673Z,11.48
2023-03-14T16:55:04.473Z,6.93
2023-03-14T16:57:30.843Z,8.60
2023-03-14T16:59:57.324Z,11.98
2023-03-14T17:02:23.871Z,10.82
2023-03-14T17:04:50.405Z,6.25
2023-03-14T17:07:16.889Z,7.68
2023-03-14T17:09:43.317Z,8.48
2023-03-14T17:12:09.852Z,7.00
2023-03-14T17:14:36.192Z,9.38
2023-03-14T17:17:02.583Z,9.85
2023-03-14T17:19:28.959Z,9.25
2023-03-14T17:22:09.330Z,12.50
2023-03-14T17:24:41.808Z,8.85
2023-03-14T17:27:08.201Z,9.32
2023-03-14T17:29:34.559Z,7.93
2023-03-14T17:32:00.951Z,9.75
2023-03-14T17:34:27.396Z,7.45
2023-03-14T17:36:53.758Z,6.53
2023-03-14T17:39:20.169Z,6.72
2023-03-14T17:41:47.662Z,7.38
2023-03-14T17:44:14.047Z,7.18
2023-03-14T17:46:40.518Z,7.32
2023-03-14T17:49:06.931Z,8.52
2023-03-14T17:51:33.420Z,7.45
2023-03-14T17:53:59.838Z,7.35
2023-03-14T17:56:26.238Z,6.53
2023-03-14T17:58:54.095Z,9.55
2023-03-14T18:01:21.160Z,9.23
2023-03-14T18:03:49.146Z,7.68
2023-03-14T18:06:17.003Z,8.25
2023-03-14T18:08:43.963Z,9.50
2023-03-14T18:11:11.513Z,11.90
2023-03-14T18:13:38.574Z,9.65
2023-03-14T18:16:06.672Z,13.52
2023-03-14T18:18:33.341Z,10.27
2023-03-14T18:20:59.835Z,10.32
2023-03-14T18:23:26.235Z,11.18
2023-03-14T18:25:52.681Z,10.43
2023-03-14T18:28:23.005Z,11.40
2023-03-14T18:30:52.423Z,7.15
2023-03-14T18:33:21.979Z,4.65
2023-03-14T18:35:51.450Z,9.70
2023-03-14T18:38:18.744Z,7.15
2023-03-14T18:40:45.216Z,9.73
2023-03-14T18:43:11.609Z,13.65
2023-03-14T18:45:38.018Z,7.78
2023-03-14T18:48:04.593Z,11.60
2023-03-14T18:50:31.572Z,8.60
2023-03-14T18:52:58.009Z,10.57
2023-03-14T18:55:24.440Z,7.75
2023-03-14T18:57:50.814Z,9.82
2023-03-14T19:00:18.913Z,9.75
2023-03-14T19:02:45.495Z,8.15
2023-03-14T19:05:13.311Z,12.52
2023-03-14T19:07:39.738Z,9.68
2023-03-14T19:10:06.411Z,10.48
2023-03-14T19:12:32.798Z,14.85
2023-03-14T19:14:59.173Z,14.85
2023-03-14T19:17:25.625Z,17.10
2023-03-14T19:19:53.999Z,21.10
2023-03-14T19:22:20.969Z,19.23
2023-03-14T19:24:47.331Z,16.60
2023-03-14T19:27:13.711Z,14.02
2023-03-14T19:29:42.176Z,18.38
2023-03-14T19:32:09.781Z,10.52
2023-03-14T19:34:36.200Z,11.73
2023-03-14T19:37:02.643Z,9.20
2023-03-14T19:39:29.032Z,11.35
2023-03-14T19:41:59.052Z,5.68
2023-03-14T19:44:26.298Z,8.32
2023-03-14T19:46:53.215Z,12.00
2023-03-14T19:49:21.807Z,11.77
2023-03-14T19:51:49.156Z,9.00
2023-03-14T19:54:15.548Z,8.20
2023-03-14T19:56:42.175Z,9.35
2023-03-14T19:59:08.576Z,12.70
2023-03-14T20:01:35.135Z,14.48
2023-03-14T20:04:04.784Z,8.60
2023-03-14T20:06:31.293Z,13.65
2023-03-14T20:08:58.906Z,11.50
2023-03-14T20:11:25.454Z,12.93
2023-03-14T20:13:51.841Z,10.07
2023-03-14T20:16:18.250Z,9.52
2023-03-14T20:18:44.659Z,9.68
2023-03-14T20:21:13.893Z,7.85
2023-03-14T20:23:40.428Z,12.60
2023-03-14T20:26:06.906Z,7.82
2023-03-14T20:28:33.536Z,7.68
2023-03-14T20:31:00.993Z,9.38
2023-03-14T20:33:27.461Z,12.65
2023-03-14T20:35:58.443Z,8.13
2023-03-14T20:38:26.345Z,12.48
2023-03-14T20:40:55.946Z,6.85
2023-03-14T20:43:22.372Z,8.73
2023-03-14T20:45:56.065Z,12.65
2023-03-14T20:48:23.283Z,9.55
2023-03-14T20:50:49.672Z,13.50
2023-03-14T20:53:16.588Z,6.10
2023-03-14T20:55:42.993Z,10.48
2023-03-14T20:58:12.706Z,10.82
2023-03-14T21:00:40.266Z,13.10
2023-03-14T21:03:07.345Z,11.95
2023-03-14T21:05:34.454Z,9.63
2023-03-14T21:08:00.911Z,10.90
2023-03-14T21:10:27.322Z,9.70
2023-03-14T21:12:53.857Z,13.02
2023-03-14T21:15:20.222Z,13.40
2023-03-14T21:17:46.597Z,11.20
2023-03-14T21:20:13.477Z,13.00
2023-03-14T21:22:39.986Z,10.80
2023-03-14T21:25:06.885Z,7.18
2023-03-14T21:27:33.431Z,11.60
2023-03-14T21:30:00.016Z,13.48
2023-03-14T21:32:26.443Z,11.45
2023-03-14T21:34:53.309Z,11.77
2023-03-14T21:37:20.119Z,9.57
2023-03-14T21:39:46.491Z,13.13
2023-03-14T21:42:13.031Z,13.27
2023-03-14T21:44:41.232Z,9.93
2023-03-14T21:47:08.331Z,16.23
2023-03-14T21:49:38.088Z,11.57
2023-03-14T21:52:06.649Z,8.82
2023-03-14T21:54:36.599Z,12.18
2023-03-14T21:57:04.278Z,11.05
2023-03-14T21:59:33.885Z,8.77
2023-03-14T22:02:02.458Z,11.25
2023-03-14T22:04:36.386Z,15.65
2023-03-14T22:07:08.708Z,12.23
2023-03-14T22:12:02.190Z,11.20
2023-03-14T22:14:28.562Z,15.35
2023-03-14T22:16:54.968Z,20.75
2023-03-14T22:19:21.972Z,29.05
2023-03-14T22:21:48.846Z,46.13
2023-03-14T22:24:15.196Z,25.15
2023-03-14T22:26:41.899Z,49.42
2023-03-14T22:29:08.305Z,31.00
2023-03-14T22:31:34.713Z,24.50
2023-03-14T22:34:01.142Z,19.70
2023-03-14T22:36:27.554Z,11.10
2023-03-14T22:38:53.917Z,10.15
2023-03-14T22:41:20.339Z,18.88
2023-03-14T22:43:47.450Z,8.98
2023-03-14T22:46:13.869Z,12.35
2023-03-14T22:48:40.282Z,16.67
2023-03-14T22:51:10.180Z,12.75
2023-03-14T22:53:37.638Z,13.68
2023-03-14T22:56:06.020Z,10.30
2023-03-14T22:58:32.967Z,10.15
2023-03-14T23:01:00.226Z,12.35
2023-03-14T23:03:27.098Z,8.77
2023-03-14T23:05:53.721Z,15.05
2023-03-14T23:08:20.227Z,14.80
2023-03-14T23:10:46.597Z,10.57
2023-03-14T23:13:15.808Z,12.63
2023-03-14T23:15:42.922Z,12.95
2023-03-14T23:18:10.928Z,14.48
2023-03-14T23:20:37.434Z,12.00
2023-03-14T23:23:04.096Z,11.30
2023-03-14T23:25:33.794Z,10.98
2023-03-14T23:28:05.046Z,14.40
2023-03-14T23:30:31.464Z,12.10
2023-03-14T23:32:57.893Z,13.15
2023-03-14T23:35:24.301Z,12.15
2023-03-14T23:37:50.890Z,11.52
2023-03-14T23:40:17.649Z,8.98
2023-03-14T23:42:44.119Z,14.77
2023-03-14T23:45:13.960Z,12.65
2023-03-14T23:47:41.210Z,14.13
2023-03-14T23:50:08.454Z,14.60
2023-03-14T23:52:34.809Z,9.82
2023-03-14T23:55:01.186Z,10.15
2023-03-14T23:57:27.544Z,12.55
2023-03-14T23:59:53.917Z,11.77
